Time;durP1;ratioP1;P1;durP2;ratioP2;P2;SDS_P1;SDS_P2;PMS_P1;PMS_P2;Temp;Humidity;BMP_temperature;BMP_pressure;BME280_temperature;BME280_humidity;BME280_pressure;Samples;Min_cycle;Max_cycle;Signal;HPM_P1;HPM_P2
2022/06/12 00:00:19;;;;;;;11.38;6.60;;;;;;;20.60;47.46;101604.97;682040;29;1559;-75
2022/06/12 00:00:41;;;;;;;11.07;6.65;;;;;;;20.60;47.50;101604.97;683548;28;1212;-75
2022/06/12 00:01:04;;;;;;;11.43;6.40;;;;;;;20.58;47.57;101606.75;685395;28;1379;-75
2022/06/12 00:01:26;;;;;;;13.43;6.68;;;;;;;20.61;47.71;101618.25;681661;29;1065;-75
2022/06/12 00:01:47;;;;;;;13.27;6.85;;;;;;;20.54;47.77;101604.09;687469;28;1211;-75
2022/06/12 00:02:08;;;;;;;10.77;6.60;;;;;;;20.55;47.87;101603.19;688081;28;1153;-75
2022/06/12 00:02:38;;;;;;;12.10;6.40;;;;;;;20.53;47.78;101604.97;686072;28;1228;-76
2022/06/12 00:03:00;;;;;;;11.25;6.13;;;;;;;20.59;47.79;101609.38;685310;28;1202;-75
2022/06/12 00:03:25;;;;;;;9.00;6.35;;;;;;;20.54;47.85;101612.03;685434;28;1065;-75
2022/06/12 00:03:50;;;;;;;10.00;6.75;;;;;;;20.56;48.01;101612.06;681789;29;1218;-75
2022/06/12 00:04:11;;;;;;;9.20;6.88;;;;;;;20.55;47.78;101608.50;682813;29;1135;-75
2022/06/12 00:04:32;;;;;;;8.90;6.75;;;;;;;20.49;47.98;101608.53;682003;29;927;-75
2022/06/12 00:04:52;;;;;;;9.23;6.33;;;;;;;20.48;48.08;101601.44;679982;29;1207;-75
2022/06/12 00:05:16;;;;;;;9.90;6.25;;;;;;;20.48;48.21;101601.44;679278;29;1284;-75
2022/06/12 00:05:40;;;;;;;9.38;6.38;;;;;;;20.50;48.20;101610.28;682701;29;1242;-75
2022/06/12 00:06:03;;;;;;;11.00;6.97;;;;;;;20.45;48.36;101606.75;682496;29;1318;-75
2022/06/12 00:06:24;;;;;;;11.57;7.00;;;;;;;20.41;48.42;101600.56;681355;29;772;-75
2022/06/12 00:06:47;;;;;;;10.35;6.50;;;;;;;20.40;48.38;101612.06;688156;28;1083;-75
2022/06/12 00:07:08;;;;;;;9.05;6.20;;;;;;;20.39;48.42;101606.75;688199;28;1470;-76
2022/06/12 00:07:28;;;;;;;10.07;6.20;;;;;;;20.34;48.40;101600.56;685323;28;1148;-75
2022/06/12 00:07:50;;;;;;;10.23;6.60;;;;;;;20.39;48.43;101606.75;688476;28;1929;-75
2022/06/12 00:08:11;;;;;;;10.25;6.82;;;;;;;20.29;48.52;101603.22;685492;28;1365;-75
2022/06/12 00:08:34;;;;;;;9.65;7.05;;;;;;;20.31;48.68;101608.50;685483;28;866;-75
2022/06/12 00:08:55;;;;;;;11.38;7.18;;;;;;;20.28;48.74;101615.59;684397;28;812;-75
2022/06/12 00:09:20;;;;;;;11.05;7.00;;;;;;;20.25;48.64;101612.94;685401;28;1762;-75
2022/06/12 00:09:41;;;;;;;11.52;6.90;;;;;;;20.25;48.87;101606.75;685968;28;1356;-75
2022/06/12 00:10:04;;;;;;;10.80;6.60;;;;;;;20.24;48.89;101613.78;685487;28;819;-75
2022/06/12 00:10:28;;;;;;;12.27;6.72;;;;;;;20.30;48.56;101617.34;688041;28;1205;-75
2022/06/12 00:10:50;;;;;;;11.93;6.70;;;;;;;20.27;48.65;101613.81;686090;28;1183;-75
2022/06/12 00:11:16;;;;;;;12.07;6.40;;;;;;;20.23;48.53;101612.03;687554;28;1670;-75
2022/06/12 00:11:49;;;;;;;12.25;6.50;;;;;;;20.17;48.68;101611.16;685732;28;1722;-75
2022/06/12 00:12:10;;;;;;;11.27;6.90;;;;;;;20.18;48.67;101612.91;682727;29;1352;-75
2022/06/12 00:12:31;;;;;;;9.93;7.00;;;;;;;20.12;48.76;101608.50;682828;28;1005;-75
2022/06/12 00:12:52;;;;;;;10.65;6.90;;;;;;;20.17;48.95;101606.75;684757;28;1165;-75
2022/06/12 00:13:17;;;;;;;11.25;6.55;;;;;;;20.13;48.97;101610.25;688216;28;1217;-75
2022/06/12 00:13:48;;;;;;;12.20;6.20;;;;;;;20.12;49.21;101613.81;686135;28;1970;-75
2022/06/12 00:14:11;;;;;;;12.27;6.20;;;;;;;20.10;49.20;101611.13;684907;28;2101;-75
2022/06/12 00:14:32;;;;;;;10.88;6.63;;;;;;;20.08;49.16;101612.00;682433;29;1970;-75
2022/06/12 00:14:52;;;;;;;8.43;6.60;;;;;;;20.06;49.37;101609.38;684591;28;1343;-75
2022/06/12 00:15:18;;;;;;;8.32;7.18;;;;;;;20.04;49.46;101604.97;686010;28;1176;-75
2022/06/12 00:15:39;;;;;;;10.30;7.05;;;;;;;20.04;49.52;101607.59;688697;28;1334;-75
2022/06/12 00:16:01;;;;;;;11.82;7.35;;;;;;;20.03;49.73;101605.84;682869;29;1495;-75
2022/06/12 00:16:23;;;;;;;11.77;6.80;;;;;;;20.03;49.83;101605.84;681965;29;1453;-75
2022/06/12 00:16:46;;;;;;;11.63;6.53;;;;;;;20.00;49.75;101609.38;680800;29;1483;-75
2022/06/12 00:17:06;;;;;;;11.30;6.32;;;;;;;19.98;49.66;101609.34;681805;29;1071;-75
2022/06/12 00:17:27;;;;;;;10.15;6.40;;;;;;;19.92;49.70;101601.38;685565;28;1783;-76
2022/06/12 00:17:48;;;;;;;9.68;6.60;;;;;;;19.92;49.90;101605.81;682729;29;1100;-76
2022/06/12 00:18:09;;;;;;;7.33;5.90;;;;;;;19.94;49.50;101609.34;682879;29;1180;-76
2022/06/12 00:18:30;;;;;;;7.75;5.95;;;;;;;19.90;49.62;101603.16;682607;29;1641;-76
2022/06/12 00:18:51;;;;;;;8.65;5.93;;;;;;;19.94;49.71;101615.53;687376;28;1247;-75
2022/06/12 00:19:13;;;;;;;10.13;6.57;;;;;;;19.89;49.62;101605.78;682790;29;1628;-75
2022/06/12 00:19:34;;;;;;;12.25;7.07;;;;;;;19.86;49.79;101606.66;681773;28;2025;-75
2022/06/12 00:19:55;;;;;;;13.10;7.30;;;;;;;19.85;49.88;101616.34;682584;29;1071;-75
2022/06/12 00:20:18;;;;;;;12.03;7.00;;;;;;;19.83;49.92;101607.53;682674;29;1393;-76
2022/06/12 00:20:39;;;;;;;10.20;6.70;;;;;;;19.78;49.89;101593.38;684937;28;1271;-75
2022/06/12 00:21:12;;;;;;;11.32;6.90;;;;;;;19.80;49.84;101611.94;680161;29;828;-75
2022/06/12 00:21:34;;;;;;;13.50;7.20;;;;;;;19.82;49.69;101615.47;684874;28;1795;-75
2022/06/12 00:21:56;;;;;;;12.68;7.30;;;;;;;19.84;49.69;101622.53;684799;28;1239;-75
2022/06/12 00:22:18;;;;;;;11.98;7.50;;;;;;;19.83;49.81;101623.41;680188;29;1725;-75
2022/06/12 00:22:39;;;;;;;10.68;7.40;;;;;;;19.77;49.97;101611.91;681250;29;1065;-76
2022/06/12 00:23:00;;;;;;;12.18;7.40;;;;;;;19.79;49.99;101615.47;680267;29;1478;-75
2022/06/12 00:23:20;;;;;;;14.60;7.20;;;;;;;19.76;50.01;101620.72;680506;29;2030;-75
2022/06/12 00:23:50;;;;;;;13.93;6.97;;;;;;;19.78;50.13;101619.88;685072;28;1751;-75
2022/06/12 00:24:14;;;;;;;11.00;6.68;;;;;;;19.75;50.05;101614.56;684813;28;1338;-75
2022/06/12 00:24:35;;;;;;;10.63;7.00;;;;;;;19.76;50.09;101618.09;684915;28;1942;-75
2022/06/12 00:24:57;;;;;;;10.05;6.90;;;;;;;19.72;50.22;101615.44;682718;28;1440;-75
2022/06/12 00:25:20;;;;;;;9.23;6.70;;;;;;;19.69;50.40;101612.78;687579;28;1597;-76
2022/06/12 00:25:41;;;;;;;9.25;7.18;;;;;;;19.67;50.41;101605.72;686680;28;1110;-75
2022/06/12 00:26:02;;;;;;;9.13;7.25;;;;;;;19.68;50.42;101607.50;685412;28;1203;-75
2022/06/12 00:26:29;;;;;;;12.40;7.53;;;;;;;19.76;50.42;101618.09;684985;28;1719;-75
2022/06/12 00:26:53;;;;;;;11.95;7.30;;;;;;;19.75;50.39;101617.22;685333;28;1327;-75
2022/06/12 00:27:14;;;;;;;13.65;7.15;;;;;;;19.70;50.41;101611.91;682299;29;1962;-76
2022/06/12 00:27:36;;;;;;;12.90;6.93;;;;;;;19.76;50.39;101618.09;682361;28;1242;-75
2022/06/12 00:27:57;;;;;;;12.60;7.20;;;;;;;19.71;50.64;101608.38;685479;28;1284;-75
2022/06/12 00:28:18;;;;;;;13.15;7.10;;;;;;;19.72;50.47;101614.53;684443;28;2036;-75
2022/06/12 00:28:39;;;;;;;12.57;7.05;;;;;;;19.69;50.67;101610.16;682936;28;1293;-75
2022/06/12 00:29:05;;;;;;;10.95;6.72;;;;;;;19.70;50.51;101611.00;685305;28;1209;-75
2022/06/12 00:29:29;;;;;;;12.07;7.10;;;;;;;19.69;50.61;101606.59;683566;28;1334;-75
2022/06/12 00:29:51;;;;;;;11.48;7.00;;;;;;;19.73;50.66;101624.25;682580;29;1148;-75
2022/06/12 00:30:14;;;;;;;11.00;6.65;;;;;;;19.68;50.76;101613.66;684685;28;1640;-75
2022/06/12 00:30:35;;;;;;;10.93;6.10;;;;;;;19.66;50.78;101603.97;684361;28;1774;-75
2022/06/12 00:30:56;;;;;;;12.15;6.28;;;;;;;19.70;50.91;101614.56;688154;28;1320;-75
2022/06/12 00:31:17;;;;;;;11.00;6.35;;;;;;;19.63;50.88;101607.47;686991;28;1785;-75
2022/06/12 00:31:42;;;;;;;11.43;7.05;;;;;;;19.68;51.13;101607.50;685692;28;1075;-75
2022/06/12 00:32:05;;;;;;;10.88;6.80;;;;;;;19.63;51.08;101606.56;685352;28;1132;-76
2022/06/12 00:32:28;;;;;;;9.35;6.50;;;;;;;19.65;51.08;101613.66;680509;29;1066;-76
2022/06/12 00:32:52;;;;;;;8.82;6.43;;;;;;;19.65;51.10;101608.34;680147;29;1361;-75
2022/06/12 00:33:13;;;;;;;11.73;6.78;;;;;;;19.63;51.22;101611.88;684974;28;1592;-75
2022/06/12 00:33:34;;;;;;;11.35;6.68;;;;;;;19.64;51.37;101613.63;686381;28;1908;-75
2022/06/12 00:33:55;;;;;;;12.32;7.10;;;;;;;19.62;51.21;101615.41;688124;28;1131;-75
2022/06/12 00:34:19;;;;;;;10.80;7.00;;;;;;;19.61;51.43;101613.63;682755;28;1566;-75
2022/06/12 00:34:49;;;;;;;12.00;6.90;;;;;;;19.52;51.57;101596.84;682345;28;1133;-75
2022/06/12 00:35:10;;;;;;;12.20;7.05;;;;;;;19.55;51.55;101607.44;682363;29;1097;-75
2022/06/12 00:35:34;;;;;;;9.70;7.00;;;;;;;19.55;51.68;101601.25;682423;29;1546;-76
2022/06/12 00:35:55;;;;;;;14.00;7.63;;;;;;;19.57;51.76;101616.28;685314;28;776;-75
2022/06/12 00:36:16;;;;;;;16.63;7.82;;;;;;;19.49;51.59;101590.66;684449;28;1314;-75
2022/06/12 00:36:37;;;;;;;15.18;8.05;;;;;;;19.50;51.72;101603.00;682726;28;1997;-75
2022/06/12 00:36:58;;;;;;;12.32;7.25;;;;;;;19.50;51.55;101605.66;685347;28;1430;-75
2022/06/12 00:37:22;;;;;;;10.77;7.20;;;;;;;19.55;51.52;101614.50;686701;28;1885;-75
2022/06/12 00:37:43;;;;;;;11.05;7.40;;;;;;;19.44;51.37;101598.56;684404;28;1966;-75
2022/06/12 00:38:04;;;;;;;12.27;7.72;;;;;;;19.47;51.39;101603.00;682430;29;1156;-75
2022/06/12 00:38:25;;;;;;;12.70;8.05;;;;;;;19.46;51.29;101612.69;678112;29;1935;-76
2022/06/12 00:38:46;;;;;;;13.07;7.75;;;;;;;19.42;51.37;101609.16;683596;28;1501;-75
2022/06/12 00:39:08;;;;;;;12.18;7.68;;;;;;;19.48;51.47;101616.22;685565;28;1024;-76
2022/06/12 00:39:31;;;;;;;11.95;7.82;;;;;;;19.42;51.42;101606.50;689155;28;1967;-75
2022/06/12 00:39:54;;;;;;;13.90;8.70;;;;;;;19.44;51.49;101604.72;685171;28;1057;-75
2022/06/12 00:40:16;;;;;;;15.93;8.85;;;;;;;19.42;51.56;101601.19;682622;29;1147;-75
2022/06/12 00:40:36;;;;;;;15.70;8.35;;;;;;;19.47;51.58;101606.50;682879;28;1114;-75
2022/06/12 00:40:57;;;;;;;13.18;7.90;;;;;;;19.43;51.64;101597.69;685632;28;823;-75
2022/06/12 00:41:18;;;;;;;11.30;7.80;;;;;;;19.42;51.54;101595.91;687242;28;1659;-75
2022/06/12 00:41:41;;;;;;;11.43;7.75;;;;;;;19.48;51.34;101605.63;685854;28;1112;-76
2022/06/12 00:42:03;;;;;;;11.85;7.70;;;;;;;19.52;51.49;101617.13;688582;28;1030;-76
2022/06/12 00:42:33;;;;;;;10.75;7.90;;;;;;;19.47;51.50;101605.66;682455;29;2053;-75
2022/06/12 00:42:59;;;;;;;11.90;8.50;;;;;;;19.52;51.39;101610.06;685383;28;2071;-75
2022/06/12 00:43:20;;;;;;;13.30;8.30;;;;;;;19.47;51.42;101608.28;688123;28;1392;-75
2022/06/12 00:43:41;;;;;;;14.60;8.15;;;;;;;19.43;51.46;101597.69;683092;28;1359;-76
2022/06/12 00:44:03;;;;;;;13.70;8.00;;;;;;;19.51;51.60;101612.72;685428;28;1143;-76
2022/06/12 00:44:32;;;;;;;12.23;8.05;;;;;;;19.43;51.53;101597.69;679684;29;867;-75
2022/06/12 00:44:56;;;;;;;12.27;8.50;;;;;;;19.52;51.57;101618.00;682659;28;1322;-75
2022/06/12 00:45:29;;;;;;;12.45;9.10;;;;;;;19.54;51.45;101610.97;684748;28;1125;-75
2022/06/12 00:45:54;;;;;;;13.80;8.65;;;;;;;19.51;51.30;101602.13;681948;29;1055;-75
2022/06/12 00:46:35;;;;;;;14.65;8.30;;;;;;;19.57;51.15;101618.03;684097;28;1156;-75
2022/06/12 00:47:00;;;;;;;12.73;7.57;;;;;;;19.52;51.13;101602.13;685144;28;867;-75
2022/06/12 00:47:21;;;;;;;11.35;7.57;;;;;;;19.51;51.04;101605.66;685224;28;1225;-75
2022/06/12 00:47:42;;;;;;;9.98;7.85;;;;;;;19.47;50.84;101601.22;687123;28;1105;-75
2022/06/12 00:48:13;;;;;;;11.18;8.23;;;;;;;19.48;50.75;101604.75;685344;28;1292;-75
2022/06/12 00:48:37;;;;;;;11.10;7.97;;;;;;;19.53;50.77;101608.28;682717;28;2094;-75
2022/06/12 00:48:58;;;;;;;13.07;8.30;;;;;;;19.45;51.08;101595.94;685601;28;776;-75
2022/06/12 00:49:25;;;;;;;13.48;7.97;;;;;;;19.47;51.22;101601.22;681585;28;1744;-75
2022/06/12 00:49:55;;;;;;;13.75;7.60;;;;;;;19.47;51.33;101597.72;684277;28;1704;-75
2022/06/12 00:50:16;;;;;;;13.20;7.55;;;;;;;19.44;51.52;101593.28;685353;28;983;-75
2022/06/12 00:50:51;;;;;;;13.23;7.60;;;;;;;19.45;51.32;101595.03;684577;28;1645;-75
2022/06/12 00:51:19;;;;;;;11.88;7.28;;;;;;;19.47;51.57;101600.34;684248;28;1034;-75
2022/06/12 00:51:41;;;;;;;11.65;7.40;;;;;;;19.42;51.32;101595.03;683398;28;914;-75
2022/06/12 00:52:24;;;;;;;10.43;7.03;;;;;;;19.50;51.45;101603.00;687811;28;1188;-75
2022/06/12 00:52:49;;;;;;;10.05;6.70;;;;;;;19.45;51.28;101602.97;686203;28;1218;-75
2022/06/12 00:53:15;;;;;;;10.90;6.90;;;;;;;19.46;51.06;101607.41;684135;28;1700;-75
2022/06/12 00:53:58;;;;;;;12.40;7.00;;;;;;;19.48;51.11;101608.28;687440;28;1915;-75
2022/06/12 00:54:19;;;;;;;11.57;6.70;;;;;;;19.46;50.94;101596.81;687715;28;1797;-75
2022/06/12 00:54:55;;;;;;;9.80;6.78;;;;;;;19.45;50.90;101595.94;689108;28;1931;-75
2022/06/12 00:55:33;;;;;;;12.43;6.70;;;;;;;19.50;50.67;101608.28;682731;29;1229;-75
2022/06/12 00:56:01;;;;;;;13.15;6.70;;;;;;;19.51;50.46;101599.47;689755;28;1328;-75
2022/06/12 00:56:32;;;;;;;11.65;6.70;;;;;;;19.57;50.24;101612.75;684527;28;1613;-76
2022/06/12 00:56:57;;;;;;;11.48;6.65;;;;;;;19.57;49.88;101610.09;681875;28;1493;-75
2022/06/12 00:57:21;;;;;;;10.77;6.57;;;;;;;19.61;50.08;101611.00;688160;28;1075;-75
2022/06/12 00:57:42;;;;;;;10.00;6.60;;;;;;;19.58;49.85;101611.84;683339;28;1331;-75
2022/06/12 00:58:09;;;;;;;8.70;6.40;;;;;;;19.60;50.08;101607.44;685439;28;1105;-75
2022/06/12 00:58:35;;;;;;;8.67;6.37;;;;;;;19.58;50.06;101604.81;681734;29;2142;-75
2022/06/12 00:59:02;;;;;;;9.45;6.20;;;;;;;19.56;50.12;101605.69;682905;29;816;-75
2022/06/12 00:59:34;;;;;;;9.23;6.00;;;;;;;19.61;49.90;101613.63;690719;28;1873;-75
2022/06/12 01:00:04;;;;;;;10.02;6.10;;;;;;;19.57;49.87;101610.09;693090;28;1346;-75
2022/06/12 01:00:25;;;;;;;10.88;5.90;;;;;;;19.56;50.08;101608.31;690007;28;1034;-75
2022/06/12 01:00:47;;;;;;;11.75;5.80;;;;;;;19.51;50.12;101600.38;685414;28;1100;-75
2022/06/12 01:01:20;;;;;;;10.23;5.65;;;;;;;19.57;50.02;101612.75;682661;29;1190;-75
2022/06/12 01:01:49;;;;;;;11.95;6.20;;;;;;;19.51;50.19;101604.75;680012;29;1171;-75
2022/06/12 01:02:13;;;;;;;13.68;6.40;;;;;;;19.50;50.13;101605.66;680131;29;1037;-75
2022/06/12 01:02:35;;;;;;;10.60;6.10;;;;;;;19.46;50.03;101604.75;684171;28;1616;-75
2022/06/12 01:02:58;;;;;;;10.75;6.00;;;;;;;19.47;50.26;101603.00;677698;29;1167;-75
2022/06/12 01:03:20;;;;;;;10.30;6.03;;;;;;;19.44;50.38;101604.72;685228;28;1988;-75
2022/06/12 01:06:52;;;;;;;10.02;5.78;;;;;;;19.47;50.30;101609.16;687087;28;1092;-75
2022/06/12 01:07:16;;;;;;;9.73;5.80;;;;;;;19.45;50.33;101609.19;686625;28;1584;-76
2022/06/12 01:07:41;;;;;;;10.20;5.75;;;;;;;19.49;50.21;101611.81;686929;28;1010;-75
2022/06/12 01:08:04;;;;;;;8.43;5.47;;;;;;;19.52;50.33;101617.13;684236;28;1174;-75
2022/06/12 01:08:28;;;;;;;8.32;5.40;;;;;;;19.55;50.27;101619.81;682697;28;2011;-75
2022/06/12 01:08:49;;;;;;;8.88;5.57;;;;;;;19.48;50.17;101607.41;685990;28;1139;-75
2022/06/12 01:09:17;;;;;;;9.20;5.43;;;;;;;19.48;50.24;101610.06;685262;28;1134;-75
2022/06/12 01:09:41;;;;;;;10.15;5.82;;;;;;;19.49;50.21;101609.19;683488;28;1428;-75
2022/06/12 01:10:07;;;;;;;9.05;5.88;;;;;;;19.51;49.94;101610.06;682686;28;1141;-75
2022/06/12 01:10:29;;;;;;;8.88;5.70;;;;;;;19.50;50.22;101605.66;680883;29;1460;-75
2022/06/12 01:10:54;;;;;;;8.27;5.40;;;;;;;19.52;50.22;101617.13;682630;28;1602;-75
2022/06/12 01:11:15;;;;;;;9.05;5.30;;;;;;;19.50;50.18;101613.59;686133;28;1627;-75
2022/06/12 01:11:40;;;;;;;10.18;5.38;;;;;;;19.50;50.24;101610.94;687278;28;1548;-75
2022/06/12 01:12:04;;;;;;;10.32;5.57;;;;;;;19.51;50.16;101618.00;688182;28;816;-76
2022/06/12 01:12:28;;;;;;;10.30;5.68;;;;;;;19.50;50.02;101610.94;686874;28;1822;-76
2022/06/12 01:12:54;;;;;;;10.95;5.80;;;;;;;19.52;49.91;101618.00;684680;28;1416;-75
2022/06/12 01:13:31;;;;;;;11.88;5.80;;;;;;;19.48;49.53;101604.75;687273;28;1214;-75
2022/06/12 01:13:52;;;;;;;10.65;5.18;;;;;;;19.49;49.89;101606.53;688803;28;1918;-76
2022/06/12 01:14:23;;;;;;;10.38;4.93;;;;;;;19.49;49.67;101606.53;690246;28;1784;-75
2022/06/12 01:14:48;;;;;;;8.85;5.05;;;;;;;19.52;49.56;101611.81;682669;28;1073;-75
2022/06/12 01:15:15;;;;;;;7.80;5.10;;;;;;;19.47;49.45;101603.00;679585;29;1797;-75
2022/06/12 01:15:50;;;;;;;8.07;5.25;;;;;;;19.51;49.55;101612.72;677388;29;1142;-75
2022/06/12 01:16:17;;;;;;;6.70;4.88;;;;;;;19.47;49.57;101608.28;682895;28;1030;-75
2022/06/12 01:16:45;;;;;;;5.65;4.60;;;;;;;19.47;49.70;101609.16;689513;28;1718;-75
2022/06/12 01:17:06;;;;;;;8.27;4.97;;;;;;;19.52;49.50;101622.41;689148;28;2083;-76
2022/06/12 01:17:28;;;;;;;9.93;5.03;;;;;;;19.45;49.64;101609.19;686166;28;2019;-75
2022/06/12 01:17:50;;;;;;;12.00;5.13;;;;;;;19.48;49.62;101610.06;684805;28;1237;-75
2022/06/12 01:18:15;;;;;;;9.68;5.07;;;;;;;19.44;49.54;101604.72;684888;28;1226;-75
2022/06/12 01:18:41;;;;;;;8.38;5.00;;;;;;;19.44;49.72;101607.38;687491;28;1246;-75
2022/06/12 01:19:04;;;;;;;7.78;5.00;;;;;;;19.48;49.54;101610.06;682495;29;1367;-75
2022/06/12 01:19:27;;;;;;;9.85;5.30;;;;;;;19.46;49.62;101607.41;687386;28;1334;-76
2022/06/12 01:19:53;;;;;;;9.05;5.40;;;;;;;19.44;49.77;101610.03;684430;28;1151;-75
2022/06/12 01:20:21;;;;;;;7.60;5.00;;;;;;;19.42;49.78;101605.63;687172;28;1482;-75
2022/06/12 01:20:57;;;;;;;8.45;4.90;;;;;;;19.41;49.69;101610.03;687709;28;1706;-75
2022/06/12 01:21:33;;;;;;;9.98;5.40;;;;;;;19.44;49.90;101611.81;687860;28;1430;-75
2022/06/12 01:21:54;;;;;;;11.27;5.70;;;;;;;19.42;50.17;101606.50;684673;28;1214;-75
2022/06/12 01:22:24;;;;;;;9.23;5.50;;;;;;;19.41;50.04;101612.66;685325;28;1128;-75
2022/06/12 01:22:47;;;;;;;8.95;5.38;;;;;;;19.39;50.36;101609.16;681952;29;998;-75
2022/06/12 01:23:23;;;;;;;9.90;5.50;;;;;;;19.37;50.38;101602.94;682509;29;1527;-75
2022/06/12 01:23:44;;;;;;;10.77;5.65;;;;;;;19.36;50.58;101606.47;682450;29;978;-75
2022/06/12 01:24:07;;;;;;;10.63;6.17;;;;;;;19.34;50.52;101600.28;682573;29;1176;-75
2022/06/12 01:24:41;;;;;;;10.88;7.32;;;;;;;19.31;50.67;101602.94;682295;29;1215;-75
2022/06/12 01:25:13;;;;;;;14.13;8.68;;;;;;;19.30;50.43;101601.16;685332;28;1568;-75
2022/06/12 01:26:04;;;;;;;15.48;8.52;;;;;;;19.24;50.60;101601.13;687796;28;1887;-75
2022/06/12 01:26:53;;;;;;;11.82;7.25;;;;;;;19.24;50.55;101607.28;687584;28;2326;-75
2022/06/12 01:27:27;;;;;;;10.45;7.28;;;;;;;19.15;50.61;101596.66;677198;29;991;-75
2022/06/12 01:28:23;;;;;;;12.07;6.80;;;;;;;19.18;50.52;101600.22;682794;28;1438;-75
2022/06/12 01:29:23;;;;;;;12.38;6.90;;;;;;;19.05;50.44;101595.72;677964;29;1148;-75
2022/06/12 01:29:55;;;;;;;9.75;6.88;;;;;;;19.06;50.21;101601.91;679414;29;1646;-75
2022/06/12 01:30:20;;;;;;;9.73;6.57;;;;;;;19.03;50.33;101608.06;682462;29;1021;-75
2022/06/12 01:30:51;;;;;;;11.05;6.95;;;;;;;19.04;50.29;101602.78;682155;29;1186;-75
2022/06/12 01:31:37;;;;;;;10.90;6.53;;;;;;;19.01;50.47;101613.28;680494;29;2025;-75
2022/06/12 01:32:21;;;;;;;8.77;5.40;;;;;;;19.00;50.44;101608.88;680146;29;903;-75
2022/06/12 01:33:01;;;;;;;8.35;5.25;;;;;;;18.98;50.54;101604.47;684924;28;1160;-75
2022/06/12 01:33:30;;;;;;;8.63;5.43;;;;;;;19.01;50.56;101610.66;685234;28;1288;-75
2022/06/12 01:34:13;;;;;;;8.05;5.13;;;;;;;18.98;50.45;101604.47;686447;28;1910;-75
2022/06/12 01:34:39;;;;;;;8.60;5.07;;;;;;;19.00;50.43;101610.66;684537;28;1536;-75
2022/06/12 01:35:16;;;;;;;9.43;5.07;;;;;;;18.99;50.42;101601.84;682638;29;1801;-75
2022/06/12 01:35:58;;;;;;;7.78;4.70;;;;;;;19.04;50.39;101610.72;681067;28;1209;-75
2022/06/12 01:36:36;;;;;;;9.43;5.18;;;;;;;19.06;50.34;101610.75;687423;28;1690;-75
2022/06/12 01:37:09;;;;;;;7.03;5.25;;;;;;;19.07;50.17;101615.16;677419;29;1480;-75
2022/06/12 01:37:37;;;;;;;7.15;5.40;;;;;;;19.02;50.23;101607.16;681197;29;1904;-75
2022/06/12 01:38:09;;;;;;;7.95;5.07;;;;;;;19.04;50.19;101604.53;682604;29;1150;-75
2022/06/12 01:38:30;;;;;;;7.90;4.95;;;;;;;19.09;50.29;101613.41;679889;29;1275;-75
2022/06/12 01:39:02;;;;;;;9.75;5.05;;;;;;;19.10;50.22;101615.16;681814;28;1793;-75
2022/06/12 01:39:53;;;;;;;10.05;5.10;;;;;;;19.11;50.35;101614.28;682098;28;1328;-75
2022/06/12 01:40:32;;;;;;;8.85;5.28;;;;;;;19.14;50.34;101616.97;683081;28;1081;-75
2022/06/12 01:40:59;;;;;;;8.10;5.00;;;;;;;19.07;50.30;101604.56;681921;28;2007;-75
2022/06/12 01:41:30;;;;;;;8.10;5.10;;;;;;;19.15;50.46;101613.44;678865;29;1158;-75
2022/06/12 01:42:04;;;;;;;7.55;5.50;;;;;;;19.12;50.29;101610.75;685147;28;1112;-75
2022/06/12 01:42:45;;;;;;;9.48;5.30;;;;;;;19.14;50.51;101608.13;682200;28;1102;-75
2022/06/12 01:43:25;;;;;;;10.15;5.30;;;;;;;19.14;50.48;101614.31;681405;29;1207;-75
2022/06/12 01:43:54;;;;;;;10.45;5.55;;;;;;;19.05;50.43;101603.66;687782;28;998;-75
2022/06/12 01:44:37;;;;;;;8.82;5.40;;;;;;;19.04;50.46;101605.44;685402;28;1021;-75
2022/06/12 01:45:13;;;;;;;8.65;5.30;;;;;;;19.00;50.52;101606.25;687995;28;875;-75
2022/06/12 01:45:49;;;;;;;13.30;5.60;;;;;;;18.97;50.75;101605.34;679834;29;1205;-75
2022/06/12 01:46:17;;;;;;;10.23;5.18;;;;;;;18.96;50.80;101593.88;679468;29;992;-75
2022/06/12 01:46:55;;;;;;;8.25;5.10;;;;;;;18.96;50.76;101598.28;680272;28;1046;-75
2022/06/12 01:47:18;;;;;;;10.30;5.07;;;;;;;18.91;50.72;101596.50;685411;28;1038;-75
2022/06/12 01:48:02;;;;;;;9.38;5.10;;;;;;;18.84;51.15;101589.41;690328;28;1221;-75
2022/06/12 01:48:52;;;;;;;9.70;5.85;;;;;;;18.87;51.22;101596.47;690550;28;1340;-75
2022/06/12 01:49:38;;;;;;;10.98;7.30;;;;;;;18.82;51.16;101598.19;687612;28;1261;-75
2022/06/12 01:50:26;;;;;;;7.57;5.75;;;;;;;18.80;51.26;101600.81;685155;28;725;-75
2022/06/12 01:51:01;;;;;;;9.50;5.80;;;;;;;18.73;51.33;101609.59;691201;28;1413;-75
2022/06/12 01:51:33;;;;;;;11.70;6.32;;;;;;;18.66;50.84;101606.03;688088;28;914;-76
2022/06/12 01:52:01;;;;;;;12.73;6.50;;;;;;;18.68;51.16;101601.63;687704;28;2096;-75
2022/06/12 01:52:55;;;;;;;9.02;5.75;;;;;;;18.68;51.10;101611.31;679993;29;1416;-76
2022/06/12 01:53:30;;;;;;;7.05;5.30;;;;;;;18.62;51.43;101601.56;684047;28;950;-75
2022/06/12 01:54:14;;;;;;;8.13;5.05;;;;;;;18.67;51.19;101609.56;685998;28;1918;-75
2022/06/12 01:54:45;;;;;;;10.13;5.60;;;;;;;18.60;51.26;101591.00;688210;28;2014;-75
2022/06/12 01:55:15;;;;;;;9.30;5.63;;;;;;;18.66;51.10;101605.13;687869;28;1440;-75
2022/06/12 01:56:00;;;;;;;7.65;5.40;;;;;;;18.60;50.91;101591.00;687794;28;1126;-75
2022/06/12 01:56:24;;;;;;;10.63;5.50;;;;;;;18.70;50.85;101604.28;685306;28;1061;-75
2022/06/12 01:57:02;;;;;;;10.63;5.50;;;;;;;18.67;50.75;101597.22;684847;28;1155;-75
2022/06/12 01:57:43;;;;;;;8.77;5.70;;;;;;;18.70;50.78;101601.63;687868;28;1058;-76
2022/06/12 01:58:09;;;;;;;8.18;5.47;;;;;;;18.68;50.66;101591.03;690588;28;1286;-75
2022/06/12 01:58:44;;;;;;;9.20;5.00;;;;;;;18.76;50.66;101612.28;687893;28;1049;-75
2022/06/12 01:59:19;;;;;;;9.00;5.25;;;;;;;18.73;50.50;101610.47;684704;28;1191;-75
2022/06/12 01:59:54;;;;;;;8.82;5.40;;;;;;;18.68;50.75;101601.63;685161;28;1136;-75
2022/06/12 02:00:20;;;;;;;10.32;5.30;;;;;;;18.73;50.83;101613.13;684889;28;1982;-75
2022/06/12 02:00:48;;;;;;;11.55;5.40;;;;;;;18.66;50.92;101597.19;680294;29;1301;-75
2022/06/12 02:01:27;;;;;;;10.65;5.30;;;;;;;18.72;50.85;101618.38;685175;28;1023;-75
2022/06/12 02:02:26;;;;;;;8.43;5.25;;;;;;;18.64;50.97;101595.44;682451;29;1037;-75
2022/06/12 02:03:06;;;;;;;6.88;5.10;;;;;;;18.66;51.18;101608.66;685629;28;1077;-75
2022/06/12 02:04:09;;;;;;;8.32;5.05;;;;;;;18.62;51.21;101602.47;684466;28;1248;-75
2022/06/12 02:04:41;;;;;;;8.00;4.65;;;;;;;18.63;51.23;101604.22;682055;28;1990;-75
2022/06/12 02:05:02;;;;;;;8.20;4.65;;;;;;;18.63;51.46;101606.88;682308;29;1033;-75
2022/06/12 02:05:42;;;;;;;8.20;4.70;;;;;;;18.66;51.37;101607.75;685140;28;752;-75
2022/06/12 02:07:21;;;;;;;8.52;5.05;;;;;;;18.58;51.57;101611.25;686433;28;1285;-75
2022/06/12 02:07:56;;;;;;;8.18;4.93;;;;;;;18.62;51.38;101615.69;688411;28;1071;-75
2022/06/12 02:08:38;;;;;;;7.68;4.80;;;;;;;18.61;51.36;101607.72;690500;28;1276;-75
2022/06/12 02:09:10;;;;;;;8.48;5.00;;;;;;;18.60;51.07;101608.59;682551;29;1380;-75
2022/06/12 02:09:38;;;;;;;8.65;4.90;;;;;;;18.63;50.84;101608.66;686222;28;990;-75
2022/06/12 02:10:11;;;;;;;9.18;4.90;;;;;;;18.69;50.85;101621.03;685082;28;1551;-75
2022/06/12 02:10:36;;;;;;;10.38;5.00;;;;;;;18.69;50.79;101613.09;687730;28;1472;-75
2022/06/12 02:13:32;;;;;;;6.85;4.32;;;;;;;18.63;50.40;101608.66;685036;28;1118;-75
2022/06/12 02:13:55;;;;;;;8.25;4.47;;;;;;;18.62;50.76;101602.47;684933;28;1929;-75
2022/06/12 02:14:21;;;;;;;8.90;4.53;;;;;;;18.60;50.28;101604.22;681848;29;1049;-75
2022/06/12 02:14:50;;;;;;;10.25;5.00;;;;;;;18.63;50.36;101606.00;682221;28;1053;-75
2022/06/12 02:15:30;;;;;;;10.73;4.90;;;;;;;18.66;50.27;101608.66;685049;28;974;-75
2022/06/12 02:16:03;;;;;;;8.02;4.20;;;;;;;18.61;50.20;101606.00;683367;28;1339;-75
2022/06/12 02:16:29;;;;;;;6.78;4.15;;;;;;;18.58;50.27;101600.69;680047;28;825;-75
2022/06/12 02:16:56;;;;;;;7.50;4.40;;;;;;;18.56;50.33;101604.19;686017;28;1202;-75
2022/06/12 02:17:35;;;;;;;9.05;4.70;;;;;;;18.56;50.32;101610.34;687500;28;1938;-75
2022/06/12 02:18:08;;;;;;;8.40;4.80;;;;;;;18.55;49.98;101607.72;687198;28;1231;-75